PWSweather.com
Personal Weather Stations
Station Observations
ABQWX
Albuquerque, NM 87110

Albuquerque, NM 87110

Lat: 35.1305, Lon: -106.58571

Elevation: 5210

Station Type: LaCrosse

http://www.albuquerqueweather.info/

Latest ConditionsUpdated 11:00:03 PM MDT Sunday, Apr 26, 2015
Currently Today's Max Today's Min Today's Average
Temperature 47.1°F8.4°C 60.8°F16.0°C 46.2°F7.9°C 52.8°F11.6°C
Dew Point 39.3°F4.1°C 43.6°F6.4°C 30.3°F-0.9°C 38.2°F3.4°C
Winds 1.4 mph W2.3 kmh W 4.7 mph SW7.6 kmh SW - 2.6 mph 4.2 kmh
Wind Gusts 2.5 mph4.0 kmh 8.9 mph14.3 kmh - -
Humidity 74% 78% 32% 60%
Pressure 29.72 in1006.4 mb 29.72 in1006.4 mb 29.61 in1002.7 mb -
Precipitation - 0.31 in7.9 mm - -
Hour Temp Dew Point Humidity Winds Wind Gusts Pressure Precip Precip Rate Daily Precip Total
11:00 PM 47.1°F8.4°C 39.3°F4.1°C 74% 1.4 mph W2.3 kmh W 2.5 mph4.0 kmh 29.72 in1006.4 mb 0.00 in0.0 mm 0.00 in0.0 mm 0.31 in7.9 mm
10:00 PM 48.2°F9.0°C 39.9°F4.4°C 73% 2.9 mph WSW4.7 kmh WSW 4.3 mph6.9 kmh 29.72 in1006.4 mb 0.00 in0.0 mm 0.00 in0.0 mm 0.31 in7.9 mm
09:00 PM 48.6°F9.2°C 39.6°F4.2°C 71% 1.4 mph NW2.3 kmh NW 2.7 mph4.3 kmh 29.69 in1005.4 mb 0.00 in0.0 mm 0.00 in0.0 mm 0.31 in7.9 mm
08:00 PM 49.6°F9.8°C 39.9°F4.4°C 69% 3.9 mph N6.3 kmh N 6.5 mph10.5 kmh 29.68 in1005.1 mb 0.00 in0.0 mm 0.00 in0.0 mm 0.31 in7.9 mm
07:00 PM 50.7°F10.4°C 40.9°F4.9°C 69% 2.1 mph N3.4 kmh N 4.9 mph7.9 kmh 29.65 in1004.1 mb 0.00 in0.0 mm 0.00 in0.0 mm 0.31 in7.9 mm
06:00 PM 52.3°F11.3°C 43.2°F6.2°C 71% 3.4 mph W5.5 kmh W 8.1 mph13.0 kmh 29.64 in1003.7 mb 0.00 in0.0 mm 0.00 in0.0 mm 0.31 in7.9 mm
05:00 PM 51.6°F10.9°C 43.6°F6.4°C 74% 2.3 mph SW3.7 kmh SW 4.0 mph6.4 kmh 29.64 in1003.7 mb 0.00 in0.0 mm 0.00 in0.0 mm 0.31 in7.9 mm
04:00 PM 50.0°F10.0°C 43.1°F6.2°C 77% 2.2 mph WSW3.5 kmh WSW 4.0 mph6.4 kmh 29.64 in1003.7 mb 0.00 in0.0 mm 0.00 in0.0 mm 0.31 in7.9 mm
03:00 PM 47.7°F8.7°C 41.1°F5.1°C 78% 2.2 mph ENE3.5 kmh ENE 3.4 mph5.5 kmh 29.64 in1003.7 mb 0.00 in0.0 mm 0.00 in0.0 mm 0.31 in7.9 mm
02:00 PM 48.6°F9.2°C 39.6°F4.2°C 71% 1.1 mph SE1.8 kmh SE 2.9 mph4.7 kmh 29.64 in1003.7 mb 0.04 in1.0 mm 0.00 in0.0 mm 0.31 in7.9 mm
01:00 PM 59.0°F15.0°C 41.4°F5.2°C 52% 2.6 mph NNW4.2 kmh NNW 4.9 mph7.9 kmh 29.61 in1002.7 mb 0.02 in0.5 mm 0.00 in0.0 mm 0.27 in6.9 mm
12:00 PM 56.7°F13.7°C 40.7°F4.8°C 55% 1.8 mph NW2.9 kmh NW 3.8 mph6.1 kmh 29.63 in1003.4 mb 0.00 in0.0 mm 0.00 in0.0 mm 0.25 in6.4 mm
11:00 AM 56.5°F13.6°C 41.0°F5.0°C 56% 2.4 mph N3.9 kmh N 4.3 mph6.9 kmh 29.63 in1003.4 mb 0.00 in0.0 mm 0.00 in0.0 mm 0.25 in6.4 mm
10:00 AM 52.9°F11.6°C 43.0°F6.1°C 69% 3.8 mph NNE6.1 kmh NNE 6.7 mph10.8 kmh 29.65 in1004.1 mb 0.00 in0.0 mm 0.00 in0.0 mm 0.25 in6.4 mm
09:00 AM 46.2°F7.9°C 38.4°F3.6°C 74% 2.8 mph NE4.5 kmh NE 6.3 mph10.1 kmh 29.67 in1004.7 mb 0.04 in1.0 mm 0.00 in0.0 mm 0.25 in6.4 mm
08:00 AM 47.8°F8.8°C 38.9°F3.8°C 71% 2.1 mph WSW3.4 kmh WSW 7.2 mph11.6 kmh 29.69 in1005.4 mb 0.17 in4.3 mm 0.00 in0.0 mm 0.21 in5.3 mm
07:00 AM 50.7°F10.4°C 39.0°F3.9°C 64% 2.7 mph W4.3 kmh W 5.6 mph9.0 kmh 29.66 in1004.4 mb 0.04 in1.0 mm 0.00 in0.0 mm 0.04 in1.0 mm
06:00 AM 53.4°F11.9°C 35.7°F2.1°C 51% 4.2 mph NW6.8 kmh NW 6.9 mph11.1 kmh 29.62 in1003.0 mb 0.00 in0.0 mm 0.00 in0.0 mm 0.00 in0.0 mm
05:00 AM 55.4°F13.0°C 34.4°F1.3°C 45% 2.6 mph ESE4.2 kmh ESE 4.9 mph7.9 kmh 29.63 in1003.4 mb 0.00 in0.0 mm 0.00 in0.0 mm 0.00 in0.0 mm
04:00 AM 56.8°F13.8°C 32.1°F0.1°C 39% 2.0 mph NE3.2 kmh NE 5.6 mph9.0 kmh 29.64 in1003.7 mb 0.00 in0.0 mm 0.00 in0.0 mm 0.00 in0.0 mm
03:00 AM 57.6°F14.2°C 30.8°F-0.7°C 36% 3.6 mph W5.8 kmh W 6.7 mph10.8 kmh 29.64 in1003.7 mb 0.00 in0.0 mm 0.00 in0.0 mm 0.00 in0.0 mm
02:00 AM 58.8°F14.9°C 30.5°F-0.8°C 34% 1.8 mph E2.9 kmh E 4.3 mph6.9 kmh 29.64 in1003.7 mb 0.00 in0.0 mm 0.00 in0.0 mm 0.00 in0.0 mm
01:00 AM 60.3°F15.7°C 30.3°F-0.9°C 32% 4.7 mph SW7.6 kmh SW 8.9 mph14.3 kmh 29.67 in1004.7 mb 0.00 in0.0 mm 0.00 in0.0 mm 0.00 in0.0 mm
12:00 AM 60.8°F16.0°C 31.5°F-0.3°C 33% 1.4 mph SE2.3 kmh SE 4.3 mph6.9 kmh 29.66 in1004.4 mb 0.00 in0.0 mm 0.00 in0.0 mm 0.00 in0.0 mm